createdAt,value
2018-02-09T00:02:11.435Z,7.70
2018-02-09T00:04:40.489Z,14.30
2018-02-09T00:07:09.457Z,12.47
2018-02-09T00:09:40.452Z,17.20
2018-02-09T00:12:09.919Z,11.37
2018-02-09T00:14:39.356Z,11.43
2018-02-09T00:17:09.433Z,13.93
2018-02-09T00:19:40.143Z,16.30
2018-02-09T00:22:14.637Z,16.03
2018-02-09T00:24:44.108Z,11.70
2018-02-09T00:27:13.402Z,11.07
2018-02-09T00:29:44.110Z,12.97
2018-02-09T00:32:13.476Z,13.83
2018-02-09T00:34:42.680Z,15.97
2018-02-09T00:37:11.886Z,16.70
2018-02-09T00:39:41.870Z,16.67
2018-02-09T00:42:11.627Z,15.30
2018-02-09T00:44:41.109Z,21.70
2018-02-09T00:47:10.110Z,14.80
2018-02-09T00:49:39.314Z,14.27
2018-02-09T00:52:10.017Z,15.30
2018-02-09T00:54:40.424Z,11.93
2018-02-09T00:57:09.513Z,13.83
2018-02-09T00:59:40.973Z,14.90
2018-02-09T01:02:10.577Z,17.03
2018-02-09T01:04:39.581Z,11.37
2018-02-09T01:07:09.693Z,11.37
2018-02-09T01:09:38.788Z,15.10
2018-02-09T01:12:08.334Z,13.30
2018-02-09T01:14:38.319Z,14.10
2018-02-09T01:17:07.308Z,14.23
2018-02-09T01:19:36.378Z,12.33
2018-02-09T01:22:05.497Z,13.67
2018-02-09T01:24:35.121Z,11.10
2018-02-09T01:27:04.106Z,13.90
2018-02-09T01:29:33.951Z,15.10
2018-02-09T01:32:03.111Z,14.20
2018-02-09T01:34:32.076Z,11.77
2018-02-09T01:37:01.192Z,13.30
2018-02-09T01:39:30.301Z,13.03
2018-02-09T01:41:59.802Z,20.20
2018-02-09T01:44:28.899Z,20.00
2018-02-09T01:46:58.796Z,20.43
2018-02-09T01:49:28.012Z,24.20
2018-02-09T01:51:58.823Z,15.80
2018-02-09T01:54:27.775Z,15.10
2018-02-09T01:56:56.736Z,15.53
2018-02-09T01:59:26.554Z,18.17
2018-02-09T02:01:56.056Z,21.63
2018-02-09T02:04:25.129Z,21.83
2018-02-09T02:06:55.005Z,16.33
2018-02-09T02:09:23.959Z,13.53
2018-02-09T02:11:52.890Z,16.10
2018-02-09T02:14:22.969Z,23.10
2018-02-09T02:16:52.168Z,13.77
2018-02-09T02:19:21.224Z,16.13
2018-02-09T02:21:50.564Z,16.53
2018-02-09T02:24:19.638Z,14.80
2018-02-09T02:26:48.652Z,20.40
2018-02-09T02:29:20.108Z,14.93
2018-02-09T02:31:50.009Z,22.73
2018-02-09T02:34:19.122Z,11.80
2018-02-09T02:36:51.587Z,13.53
2018-02-09T02:39:21.409Z,15.80
2018-02-09T02:41:51.222Z,16.73
2018-02-09T02:44:21.083Z,15.70
2018-02-09T02:46:50.232Z,19.20
2018-02-09T02:49:20.441Z,16.87
2018-02-09T02:51:49.447Z,15.30
2018-02-09T02:54:18.750Z,17.00
2018-02-09T02:56:47.845Z,19.87
2018-02-09T02:59:17.707Z,16.87
2018-02-09T03:01:46.855Z,16.60
2018-02-09T03:04:16.878Z,24.30
2018-02-09T03:06:46.058Z,24.03
2018-02-09T03:09:14.551Z,20.40
2018-02-09T03:11:44.304Z,21.83
2018-02-09T03:14:14.491Z,20.03
2018-02-09T03:16:43.483Z,20.33
2018-02-09T03:19:12.475Z,15.47
2018-02-09T03:21:47.200Z,18.33
2018-02-09T03:24:17.240Z,19.93
2018-02-09T03:26:46.416Z,20.37
2018-02-09T03:29:15.445Z,17.83
2018-02-09T03:31:44.625Z,16.73
2018-02-09T03:34:13.605Z,17.67
2018-02-09T03:36:44.655Z,19.57
2018-02-09T03:39:13.638Z,22.07
2018-02-09T03:41:42.719Z,22.07
2018-02-09T03:44:13.441Z,26.03
2018-02-09T03:46:43.110Z,23.30
2018-02-09T03:49:12.173Z,20.73
2018-02-09T03:51:41.379Z,20.10
2018-02-09T03:54:13.647Z,20.00
2018-02-09T03:56:43.597Z,19.50
2018-02-09T03:59:12.577Z,27.60
2018-02-09T04:01:45.972Z,19.77
2018-02-09T04:04:14.963Z,20.43
2018-02-09T04:06:44.062Z,23.83
2018-02-09T04:09:14.116Z,20.00
2018-02-09T04:11:43.127Z,26.20
2018-02-09T04:14:12.167Z,24.47
2018-02-09T04:16:41.162Z,24.70
2018-02-09T04:19:10.156Z,23.67
2018-02-09T04:21:39.357Z,23.67
2018-02-09T04:24:09.405Z,26.53
2018-02-09T04:26:39.193Z,22.67
2018-02-09T04:29:08.081Z,22.33
2018-02-09T04:31:37.311Z,24.03
2018-02-09T04:34:06.272Z,29.10
2018-02-09T04:36:35.467Z,23.27
2018-02-09T04:39:05.452Z,25.93
2018-02-09T04:41:34.316Z,26.67
2018-02-09T04:44:04.294Z,29.03
2018-02-09T04:46:37.690Z,26.13
2018-02-09T04:49:06.721Z,26.93
2018-02-09T04:51:35.925Z,28.00
2018-02-09T04:54:06.620Z,25.97
2018-02-09T04:56:36.435Z,33.90
2018-02-09T04:59:05.424Z,29.20
2018-02-09T05:01:34.419Z,31.40
2018-02-09T05:04:03.448Z,27.20
2018-02-09T05:06:32.520Z,39.90
2018-02-09T05:11:38.077Z,39.87
2018-02-09T05:14:07.247Z,38.07
2018-02-09T05:16:37.903Z,35.83
2018-02-09T05:19:10.479Z,35.43
2018-02-09T05:21:40.551Z,35.90
2018-02-09T05:24:09.868Z,29.23
2018-02-09T05:26:39.713Z,28.90
2018-02-09T05:29:08.792Z,25.10
2018-02-09T05:31:37.906Z,25.20
2018-02-09T05:34:07.152Z,19.90
2018-02-09T05:36:39.791Z,17.00
2018-02-09T05:39:09.703Z,20.47
2018-02-09T05:41:38.586Z,20.70
2018-02-09T05:44:10.047Z,15.00
2018-02-09T05:46:39.408Z,21.37
2018-02-09T05:49:08.466Z,15.43
2018-02-09T05:51:38.425Z,12.73
2018-02-09T05:54:07.480Z,15.40
2018-02-09T05:56:39.035Z,18.40
2018-02-09T05:59:09.360Z,15.37
2018-02-09T06:01:39.151Z,13.83
2018-02-09T06:04:08.306Z,17.43
2018-02-09T06:06:39.086Z,13.57
2018-02-09T06:09:09.738Z,14.30
2018-02-09T06:11:38.605Z,15.07
2018-02-09T06:14:08.685Z,11.53
2018-02-09T06:16:37.639Z,10.03
2018-02-09T06:19:06.530Z,10.00
2018-02-09T06:21:35.625Z,8.87
2018-02-09T06:24:04.560Z,8.40
2018-02-09T06:26:33.484Z,29.43
2018-02-09T06:29:04.138Z,12.73
2018-02-09T06:31:33.240Z,10.97
2018-02-09T06:34:02.273Z,11.07
2018-02-09T06:36:32.760Z,11.10
2018-02-09T06:39:02.062Z,9.30
2018-02-09T06:41:31.877Z,9.43
2018-02-09T06:44:02.588Z,13.60
2018-02-09T06:46:32.323Z,17.10
2018-02-09T06:49:01.296Z,10.53
2018-02-09T06:51:30.314Z,9.70
2018-02-09T06:54:01.137Z,9.03
2018-02-09T06:56:30.446Z,8.67
2018-02-09T06:58:59.543Z,9.37
2018-02-09T07:01:28.640Z,10.80
2018-02-09T07:03:57.660Z,7.40
2018-02-09T07:06:26.673Z,8.50
2018-02-09T07:08:55.690Z,12.27
2018-02-09T07:11:24.822Z,9.27
2018-02-09T07:13:58.198Z,6.23
2018-02-09T07:16:27.209Z,6.77
2018-02-09T07:18:57.381Z,7.00
2018-02-09T07:21:26.376Z,6.23
2018-02-09T07:23:55.424Z,6.73
2018-02-09T07:26:24.316Z,6.40
2018-02-09T07:28:54.764Z,10.13
2018-02-09T07:31:24.456Z,8.00
2018-02-09T07:33:53.646Z,7.20
2018-02-09T07:36:23.500Z,9.60
2018-02-09T07:38:53.380Z,7.50
2018-02-09T07:41:23.194Z,7.53
2018-02-09T07:43:53.340Z,7.10
2018-02-09T07:46:22.307Z,6.90
2018-02-09T07:48:51.707Z,6.90
2018-02-09T07:51:22.334Z,9.53
2018-02-09T07:53:52.809Z,7.03
2018-02-09T07:56:21.797Z,7.10
2018-02-09T07:58:51.779Z,7.17
2018-02-09T08:01:22.397Z,8.40
2018-02-09T08:03:51.404Z,7.57
2018-02-09T08:06:21.203Z,6.13
2018-02-09T08:08:51.882Z,6.53
2018-02-09T08:11:20.983Z,7.57
2018-02-09T08:13:51.536Z,8.23
2018-02-09T08:16:21.258Z,8.80
2018-02-09T08:18:50.288Z,7.83
2018-02-09T08:21:21.941Z,23.03
2018-02-09T08:23:50.936Z,10.20
2018-02-09T08:26:20.887Z,7.77
2018-02-09T08:28:51.790Z,5.97
2018-02-09T08:31:20.992Z,12.87
2018-02-09T08:33:54.436Z,8.77
2018-02-09T08:36:24.300Z,7.90
2018-02-09T08:38:54.761Z,7.43
2018-02-09T08:41:24.136Z,7.07
2018-02-09T08:43:53.205Z,6.87
2018-02-09T08:46:22.221Z,11.43
2018-02-09T08:48:52.017Z,6.40
2018-02-09T08:51:21.131Z,6.53
2018-02-09T08:53:51.053Z,6.60
2018-02-09T08:56:23.723Z,7.53
2018-02-09T08:58:54.496Z,7.33
2018-02-09T09:01:23.458Z,5.60
2018-02-09T09:06:27.593Z,6.50
2018-02-09T09:08:57.493Z,6.87
2018-02-09T09:11:27.379Z,8.10
2018-02-09T09:13:58.053Z,12.10
2018-02-09T09:16:27.763Z,7.10
2018-02-09T09:18:56.792Z,8.33
2018-02-09T09:21:25.749Z,7.47
2018-02-09T09:23:59.250Z,7.40
2018-02-09T09:26:28.244Z,7.67
2018-02-09T09:28:58.057Z,7.00
2018-02-09T09:31:27.974Z,5.80
2018-02-09T09:33:57.249Z,6.17
2018-02-09T09:36:27.087Z,7.43
2018-02-09T09:38:58.579Z,6.33
2018-02-09T09:41:29.286Z,6.23
2018-02-09T09:43:58.266Z,6.30
2018-02-09T09:46:29.052Z,6.63
2018-02-09T09:48:58.028Z,8.17
2018-02-09T09:51:27.987Z,5.90
2018-02-09T09:53:57.315Z,6.10
2018-02-09T09:56:26.317Z,8.17
2018-02-09T09:58:57.862Z,5.07
2018-02-09T10:01:32.895Z,5.23
2018-02-09T10:04:01.825Z,3.53
2018-02-09T10:06:30.757Z,5.93
2018-02-09T10:09:00.635Z,3.80
2018-02-09T10:11:30.538Z,5.00
2018-02-09T10:13:59.402Z,2.93
2018-02-09T10:16:28.842Z,11.03
2018-02-09T10:18:57.935Z,6.70
2018-02-09T10:21:26.932Z,4.80
2018-02-09T10:23:57.940Z,3.50
2018-02-09T10:26:26.939Z,2.90
2018-02-09T10:28:55.963Z,3.57
2018-02-09T10:31:28.501Z,3.50
2018-02-09T10:34:01.208Z,7.50
2018-02-09T10:36:31.099Z,3.53
2018-02-09T10:39:01.710Z,3.73
2018-02-09T10:41:30.869Z,4.10
2018-02-09T10:44:02.559Z,10.60
2018-02-09T10:46:31.530Z,8.33
2018-02-09T10:49:00.575Z,8.00
2018-02-09T10:51:30.640Z,3.57
2018-02-09T10:54:00.303Z,3.47
2018-02-09T10:56:29.401Z,6.70
2018-02-09T10:58:59.898Z,4.07
2018-02-09T11:01:35.475Z,4.30
2018-02-09T11:04:08.868Z,4.00
2018-02-09T11:06:37.899Z,4.20
2018-02-09T11:09:06.901Z,3.30
2018-02-09T11:11:36.099Z,5.40
2018-02-09T11:14:05.077Z,7.23
2018-02-09T11:16:34.251Z,6.13
2018-02-09T11:19:05.128Z,4.07
2018-02-09T11:21:34.083Z,5.67
2018-02-09T11:24:03.194Z,4.67
2018-02-09T11:26:33.094Z,4.00
2018-02-09T11:29:02.187Z,4.23
2018-02-09T11:31:31.186Z,5.50
2018-02-09T11:34:02.028Z,4.30
2018-02-09T11:36:31.119Z,4.40
2018-02-09T11:39:00.251Z,5.97
2018-02-09T11:41:29.495Z,6.37
2018-02-09T11:44:00.352Z,4.50
2018-02-09T11:46:29.335Z,5.07
2018-02-09T11:48:59.566Z,4.00
2018-02-09T11:51:28.699Z,7.43
2018-02-09T11:53:58.105Z,5.23
2018-02-09T11:56:29.726Z,5.10
2018-02-09T11:58:58.827Z,4.33
2018-02-09T12:01:28.531Z,11.93
2018-02-09T12:03:57.669Z,4.03
2018-02-09T12:06:26.723Z,8.10
2018-02-09T12:08:55.719Z,10.23
2018-02-09T12:11:25.368Z,10.77
2018-02-09T12:13:54.468Z,5.20
2018-02-09T12:16:24.413Z,4.03
2018-02-09T12:18:58.653Z,4.40
2018-02-09T12:21:28.576Z,4.70
2018-02-09T12:23:57.670Z,5.80
2018-02-09T12:26:27.484Z,7.43
2018-02-09T12:28:57.398Z,9.40
2018-02-09T12:31:26.431Z,4.07
2018-02-09T12:33:55.526Z,6.23
2018-02-09T12:36:24.512Z,6.53
2018-02-09T12:38:53.433Z,8.80
2018-02-09T12:41:25.334Z,8.30
2018-02-09T12:43:54.738Z,6.40
2018-02-09T12:46:23.761Z,3.50
2018-02-09T12:48:54.164Z,4.77
2018-02-09T12:51:23.263Z,9.13
2018-02-09T12:53:52.244Z,4.03
2018-02-09T12:56:22.831Z,4.13
2018-02-09T12:58:51.912Z,4.73
2018-02-09T13:01:21.832Z,5.43
2018-02-09T13:03:51.028Z,4.70
2018-02-09T13:06:20.907Z,4.23
2018-02-09T13:08:50.626Z,4.90
2018-02-09T13:11:20.474Z,5.33
2018-02-09T13:13:49.980Z,4.80
2018-02-09T13:16:20.804Z,5.60
2018-02-09T13:18:51.775Z,6.63
2018-02-09T13:21:21.735Z,4.80
2018-02-09T13:24:02.733Z,5.37
2018-02-09T13:26:31.755Z,5.63
2018-02-09T13:29:00.947Z,5.90
2018-02-09T13:31:30.899Z,5.50
2018-02-09T13:34:00.065Z,4.80
2018-02-09T13:36:41.101Z,7.97
2018-02-09T13:39:10.084Z,8.17
2018-02-09T13:41:40.243Z,4.83
2018-02-09T13:44:10.594Z,4.93
2018-02-09T13:46:39.743Z,5.07
2018-02-09T13:49:09.075Z,5.00
2018-02-09T13:51:42.736Z,4.50
2018-02-09T13:54:11.947Z,7.03
2018-02-09T13:56:40.962Z,7.93
2018-02-09T13:59:13.403Z,7.50
2018-02-09T14:01:42.484Z,8.60
2018-02-09T14:04:11.954Z,4.80
2018-02-09T14:06:44.787Z,4.33
2018-02-09T14:09:14.906Z,7.93
2018-02-09T14:11:47.225Z,7.10
2018-02-09T14:14:16.378Z,8.37
2018-02-09T14:16:46.393Z,5.83
2018-02-09T14:19:17.248Z,5.20
2018-02-09T14:21:46.478Z,6.50
2018-02-09T14:24:15.454Z,5.67
2018-02-09T14:26:44.700Z,6.67
2018-02-09T14:29:14.702Z,6.20
2018-02-09T14:31:45.442Z,7.33
2018-02-09T14:34:15.910Z,17.33
2018-02-09T14:36:45.112Z,9.70
2018-02-09T14:39:18.807Z,10.90
2018-02-09T14:41:48.959Z,7.10
2018-02-09T14:44:19.050Z,5.93
2018-02-09T14:46:49.118Z,8.93
2018-02-09T14:49:18.311Z,15.20
2018-02-09T14:51:48.091Z,7.17
2018-02-09T14:54:18.986Z,10.47
2018-02-09T14:56:48.659Z,9.90
2018-02-09T14:59:17.716Z,14.67
2018-02-09T15:01:51.012Z,7.10
2018-02-09T15:04:20.255Z,8.33
2018-02-09T15:06:57.401Z,7.90
2018-02-09T15:09:27.465Z,6.83
2018-02-09T15:11:56.575Z,10.73
2018-02-09T15:14:28.557Z,9.17
2018-02-09T15:16:59.302Z,8.50
2018-02-09T15:19:28.408Z,15.57
2018-02-09T15:21:59.127Z,7.67
2018-02-09T15:24:28.245Z,8.30
2018-02-09T15:26:57.590Z,8.30
2018-02-09T15:29:26.957Z,9.87
2018-02-09T15:31:56.963Z,6.40
2018-02-09T15:34:27.286Z,9.50
2018-02-09T15:37:02.933Z,11.23
2018-02-09T15:39:32.854Z,11.90
2018-02-09T15:42:02.048Z,8.47
2018-02-09T15:44:31.406Z,11.93
2018-02-09T15:47:00.451Z,7.20
2018-02-09T15:49:30.284Z,9.93
2018-02-09T15:52:00.678Z,8.90
2018-02-09T15:54:29.937Z,9.27
2018-02-09T15:56:59.158Z,10.77
2018-02-09T15:59:29.584Z,10.40
2018-02-09T16:01:58.982Z,10.30
2018-02-09T16:04:28.451Z,13.80
2018-02-09T16:06:59.390Z,8.80
2018-02-09T16:09:29.590Z,17.70
2018-02-09T16:11:58.622Z,15.60
2018-02-09T16:14:29.386Z,30.50
2018-02-09T16:16:58.641Z,23.60
2018-02-09T16:19:27.937Z,13.57
2018-02-09T16:21:58.925Z,19.60
2018-02-09T16:24:28.057Z,26.50
2018-02-09T16:26:58.197Z,11.03
2018-02-09T16:29:27.374Z,12.07
2018-02-09T16:31:56.598Z,15.10
2018-02-09T16:34:25.676Z,16.27
2018-02-09T16:36:55.522Z,11.97
2018-02-09T16:39:24.823Z,12.23
2018-02-09T16:41:54.039Z,15.37
2018-02-09T16:44:23.243Z,22.73
2018-02-09T16:46:52.660Z,20.53
2018-02-09T16:49:21.807Z,13.70
2018-02-09T16:51:52.729Z,14.10
2018-02-09T16:54:22.107Z,17.40
2018-02-09T16:56:51.428Z,21.53
2018-02-09T16:59:23.047Z,34.37
2018-02-09T17:01:53.558Z,32.73
2018-02-09T17:04:22.882Z,32.00
2018-02-09T17:06:52.393Z,30.30
2018-02-09T17:09:21.888Z,43.27
2018-02-09T17:11:52.072Z,61.80
2018-02-09T17:14:23.055Z,37.70
2018-02-09T17:16:53.157Z,37.97
2018-02-09T17:19:22.834Z,37.93
2018-02-09T17:21:52.311Z,35.30
2018-02-09T17:24:21.828Z,47.57
2018-02-09T17:26:51.231Z,51.03
2018-02-09T17:29:21.470Z,40.53
2018-02-09T17:31:50.862Z,51.70
2018-02-09T17:34:21.023Z,74.93
2018-02-09T17:36:52.881Z,76.33
2018-02-09T17:39:22.629Z,65.30
2018-02-09T17:41:53.060Z,62.60
2018-02-09T17:44:26.517Z,50.87
2018-02-09T17:46:55.678Z,46.50
2018-02-09T17:49:24.671Z,46.80
2018-02-09T17:51:53.875Z,47.53
2018-02-09T17:54:23.820Z,55.60
2018-02-09T17:56:53.294Z,65.50
2018-02-09T17:59:24.372Z,53.10
2018-02-09T18:01:53.697Z,54.50
2018-02-09T18:04:22.943Z,52.67
2018-02-09T18:06:52.298Z,42.70
2018-02-09T18:09:21.723Z,34.20
2018-02-09T18:11:52.535Z,28.00
2018-02-09T18:14:22.784Z,32.10
2018-02-09T18:16:52.310Z,31.37
2018-02-09T18:19:21.618Z,38.37
2018-02-09T18:21:50.710Z,28.40
2018-02-09T18:24:20.143Z,22.67
2018-02-09T18:26:49.348Z,24.97
2018-02-09T18:29:19.226Z,27.90
2018-02-09T18:31:48.729Z,33.80
2018-02-09T18:34:21.534Z,31.50
2018-02-09T18:36:50.711Z,33.83
2018-02-09T18:39:19.959Z,34.83
2018-02-09T18:41:49.810Z,33.03
2018-02-09T18:44:20.282Z,38.27
2018-02-09T18:46:51.777Z,41.50
2018-02-09T18:49:22.653Z,43.53
2018-02-09T18:51:53.242Z,41.93
2018-02-09T18:54:24.273Z,36.40
2018-02-09T18:56:54.278Z,31.63
2018-02-09T18:59:23.988Z,39.20
2018-02-09T19:01:54.413Z,33.93
2018-02-09T19:04:23.983Z,38.80
2018-02-09T19:06:53.349Z,35.47
2018-02-09T19:09:22.561Z,48.00
2018-02-09T19:11:51.896Z,52.23
2018-02-09T19:14:22.927Z,55.17
2018-02-09T19:16:53.125Z,48.50
2018-02-09T19:19:22.314Z,51.43
2018-02-09T19:21:51.704Z,54.70
2018-02-09T19:24:21.156Z,58.17
2018-02-09T19:26:50.738Z,60.57
2018-02-09T19:29:21.584Z,67.77
2018-02-09T19:31:51.003Z,60.00
2018-02-09T19:34:20.168Z,54.37
2018-02-09T19:36:49.149Z,49.40
2018-02-09T19:39:18.114Z,52.53
2018-02-09T19:41:47.028Z,88.43
2018-02-09T19:44:19.428Z,71.35
2018-02-09T19:46:48.398Z,79.43
2018-02-09T19:49:17.479Z,107.90
2018-02-09T19:51:47.313Z,226.17
2018-02-09T19:54:16.434Z,163.20
2018-02-09T19:56:45.459Z,100.80
2018-02-09T19:59:16.216Z,82.70
2018-02-09T20:01:45.245Z,68.43
2018-02-09T20:04:14.296Z,71.50
2018-02-09T20:06:46.676Z,63.47
2018-02-09T20:09:15.858Z,59.17
2018-02-09T20:11:45.158Z,49.67
2018-02-09T20:14:14.292Z,44.70
2018-02-09T20:16:43.643Z,36.67
2018-02-09T20:19:12.926Z,42.17
2018-02-09T20:21:44.291Z,42.13
2018-02-09T20:24:13.436Z,33.13
2018-02-09T20:26:43.205Z,38.57
2018-02-09T20:29:12.516Z,47.77
2018-02-09T20:31:41.654Z,45.53
2018-02-09T20:34:10.732Z,31.10
2018-02-09T20:36:39.995Z,32.63
2018-02-09T20:39:09.950Z,40.67
2018-02-09T20:41:39.059Z,39.25
2018-02-09T20:46:43.500Z,37.60
2018-02-09T20:49:12.401Z,38.23
2018-02-09T20:51:41.414Z,39.37
2018-02-09T20:54:11.923Z,35.30
2018-02-09T20:56:42.956Z,32.87
2018-02-09T20:59:12.708Z,34.80
2018-02-09T21:01:42.256Z,30.00
2018-02-09T21:04:13.070Z,30.90
2018-02-09T21:06:42.635Z,31.60
2018-02-09T21:09:13.053Z,31.77
2018-02-09T21:11:42.676Z,26.90
2018-02-09T21:14:12.321Z,30.43
2018-02-09T21:16:41.941Z,27.07
2018-02-09T21:19:13.932Z,28.47
2018-02-09T21:21:43.193Z,33.70
2018-02-09T21:24:13.426Z,46.63
2018-02-09T21:26:43.950Z,50.73
2018-02-09T21:29:13.409Z,45.67
2018-02-09T21:31:42.853Z,30.63
2018-02-09T21:34:12.044Z,30.47
2018-02-09T21:36:41.626Z,36.27
2018-02-09T21:39:11.304Z,32.80
2018-02-09T21:41:41.437Z,31.83
2018-02-09T21:44:10.699Z,26.50
2018-02-09T21:46:40.065Z,24.13
2018-02-09T21:49:11.979Z,26.63
2018-02-09T21:51:41.724Z,22.93
2018-02-09T21:54:11.831Z,22.23
2018-02-09T21:56:42.417Z,21.03
2018-02-09T21:59:12.003Z,31.03
2018-02-09T22:01:41.541Z,46.50
2018-02-09T22:04:11.233Z,27.30
2018-02-09T22:06:40.800Z,27.03
2018-02-09T22:09:10.546Z,31.50
2018-02-09T22:11:39.909Z,43.83
2018-02-09T22:14:09.142Z,29.93
2018-02-09T22:16:38.320Z,29.52
2018-02-09T22:19:08.786Z,36.43
2018-02-09T22:21:38.068Z,32.38
2018-02-09T22:24:07.087Z,41.30
2018-02-09T22:26:36.120Z,50.15
2018-02-09T22:29:05.078Z,39.20
2018-02-09T22:31:34.088Z,39.65
2018-02-09T22:34:03.124Z,41.35
2018-02-09T22:36:32.126Z,38.60
2018-02-09T22:39:01.157Z,35.73
2018-02-09T22:41:31.087Z,25.70
2018-02-09T22:44:00.198Z,29.40
2018-02-09T22:46:29.212Z,26.92
2018-02-09T22:48:59.872Z,26.60
2018-02-09T22:51:28.981Z,30.42
2018-02-09T22:53:58.398Z,30.45
2018-02-09T22:56:28.322Z,28.70
2018-02-09T22:58:57.560Z,31.30
2018-02-09T23:01:26.698Z,26.90
2018-02-09T23:03:55.810Z,23.17
2018-02-09T23:06:25.177Z,33.63
2018-02-09T23:08:54.740Z,26.25
2018-02-09T23:11:25.400Z,34.27
2018-02-09T23:13:55.648Z,33.30
2018-02-09T23:16:24.945Z,26.58
2018-02-09T23:18:54.529Z,29.63
2018-02-09T23:21:23.724Z,26.70
2018-02-09T23:23:52.763Z,32.85
2018-02-09T23:26:24.008Z,34.22
2018-02-09T23:28:54.126Z,32.70
2018-02-09T23:31:24.310Z,32.80
2018-02-09T23:33:54.306Z,33.28
2018-02-09T23:36:24.375Z,33.17
2018-02-09T23:38:53.973Z,39.50
2018-02-09T23:41:24.357Z,29.98
2018-02-09T23:43:53.506Z,33.00
2018-02-09T23:46:22.777Z,41.67
2018-02-09T23:48:54.335Z,42.42
2018-02-09T23:51:24.405Z,32.38
2018-02-09T23:53:53.647Z,37.93
2018-02-09T23:56:23.994Z,38.55
2018-02-09T23:58:54.180Z,32.90
